Time;durP1;ratioP1;P1;durP2;ratioP2;P2;SDS_P1;SDS_P2;PMS_P1;PMS_P2;Temp;Humidity;BMP_temperature;BMP_pressure;BME280_temperature;BME280_humidity;BME280_pressure;Samples;Min_cycle;Max_cycle;Signal;HPM_P1;HPM_P2
2022/01/20 00:01:59;;;;;;;2.17;1.50;;;22.00;67.00;;;;;;7809400;28;20551;-54
2022/01/20 00:23:06;;;;;;;2.60;1.63;;;21.90;66.90;;;;;;7808970;28;20210;-53
2022/01/20 00:26:14;;;;;;;1.73;1.20;;;21.70;66.80;;;;;;7809313;28;20652;-52
2022/01/20 00:34:32;;;;;;;2.58;1.40;;;21.70;66.80;;;;;;7809507;28;20265;-52
2022/01/20 00:38:13;;;;;;;3.15;1.17;;;21.60;66.70;;;;;;7808357;28;20249;-50
2022/01/20 00:41:58;;;;;;;2.22;1.27;;;21.60;66.80;;;;;;7808724;28;20269;-55
2022/01/20 00:45:44;;;;;;;2.95;1.40;;;21.60;67.00;;;;;;7808137;28;20204;-55
2022/01/20 00:49:29;;;;;;;2.35;1.20;;;21.60;67.00;;;;;;7807752;28;20206;-50
2022/01/20 00:53:15;;;;;;;3.85;1.30;;;21.50;66.90;;;;;;7807913;28;20268;-51
2022/01/20 00:57:02;;;;;;;3.10;1.30;;;21.50;67.00;;;;;;7807802;28;20187;-51
2022/01/20 01:00:48;;;;;;;1.73;1.38;;;21.50;66.90;;;;;;7807566;28;20174;-51
2022/01/20 01:04:34;;;;;;;2.38;1.30;;;21.50;66.90;;;;;;7807727;28;20178;-52
2022/01/20 01:08:19;;;;;;;4.40;1.50;;;21.40;66.90;;;;;;7807235;28;20202;-55
2022/01/20 01:12:09;;;;;;;2.08;1.20;;;21.40;66.80;;;;;;7807619;28;20197;-51
2022/01/20 01:15:54;;;;;;;1.38;1.00;;;21.40;66.80;;;;;;7807099;28;20182;-56
2022/01/20 01:23:44;;;;;;;1.50;1.00;;;21.30;66.70;;;;;;7807300;28;20324;-56
2022/01/20 01:27:34;;;;;;;1.40;1.02;;;21.30;66.80;;;;;;7806934;28;20263;-54
2022/01/20 01:31:38;;;;;;;1.17;1.00;;;21.30;66.80;;;;;;7807519;28;20178;-51
2022/01/20 01:35:26;;;;;;;2.55;0.95;;;21.30;66.70;;;;;;7807584;28;20241;-54
2022/01/20 01:39:12;;;;;;;1.67;0.90;;;21.30;66.80;;;;;;7807272;28;20619;-54
2022/01/20 01:43:02;;;;;;;1.23;1.05;;;21.30;66.80;;;;;;7807260;28;20530;-53
2022/01/20 01:46:48;;;;;;;0.90;0.90;;;21.20;66.80;;;;;;7807299;28;20195;-51
2022/01/20 01:50:34;;;;;;;1.05;0.90;;;21.20;66.80;;;;;;7806711;28;20260;-51
2022/01/20 01:54:20;;;;;;;1.10;0.88;;;21.20;66.80;;;;;;7806966;28;20179;-53
2022/01/20 01:58:05;;;;;;;1.73;0.90;;;21.20;66.90;;;;;;7806712;28;20233;-53
2022/01/20 02:01:51;;;;;;;1.77;1.10;;;21.20;66.80;;;;;;7806869;28;20557;-52
2022/01/20 02:05:48;;;;;;;1.58;0.90;;;21.20;67.10;;;;;;7810174;28;20179;-51
2022/01/20 02:17:50;;;;;;;1.30;1.20;;;21.20;66.90;;;;;;7812388;28;20206;-51
2022/01/20 02:17:58;;;;;;;1.23;1.00;;;21.10;66.90;;;;;;7812140;28;20684;-55
2022/01/20 02:21:56;;;;;;;1.13;0.95;;;21.10;66.80;;;;;;7812335;28;20269;-51
2022/01/20 02:25:42;;;;;;;1.38;0.85;;;21.10;66.80;;;;;;7812250;28;20218;-57
2022/01/20 02:29:27;;;;;;;0.80;0.80;;;21.10;66.80;;;;;;7811707;28;20218;-51
2022/01/20 02:33:17;;;;;;;0.88;0.80;;;21.00;66.80;;;;;;7812038;28;20682;-51
2022/01/20 02:37:07;;;;;;;1.20;0.93;;;21.00;67.00;;;;;;7811930;28;20167;-53
2022/01/20 02:44:57;;;;;;;1.77;0.90;;;21.00;66.70;;;;;;7811752;28;20194;-51
2022/01/20 02:48:43;;;;;;;1.08;0.75;;;21.00;66.70;;;;;;7811278;28;20203;-50
2022/01/20 02:52:28;;;;;;;1.45;1.02;;;21.00;66.50;;;;;;7811619;28;20206;-55
2022/01/20 02:56:14;;;;;;;2.80;1.30;;;21.00;66.40;;;;;;7811462;28;20183;-52
2022/01/20 03:00:00;;;;;;;3.53;1.40;;;20.90;66.10;;;;;;7811122;28;20743;-52
2022/01/20 03:03:45;;;;;;;2.05;1.02;;;20.90;66.20;;;;;;7811391;28;20179;-52
2022/01/20 03:07:31;;;;;;;3.80;1.08;;;20.90;66.20;;;;;;7810991;28;20232;-54
2022/01/20 03:11:16;;;;;;;5.97;1.10;;;20.90;66.10;;;;;;7811395;28;20669;-53
2022/01/20 03:15:02;;;;;;;2.00;0.90;;;20.90;66.10;;;;;;7811260;28;20206;-56
2022/01/20 03:18:48;;;;;;;4.88;1.75;;;20.90;66.10;;;;;;7810963;28;20567;-55
2022/01/20 03:22:33;;;;;;;3.53;1.27;;;20.80;65.90;;;;;;7811727;28;20194;-57
2022/01/20 03:26:19;;;;;;;3.35;0.95;;;20.80;65.90;;;;;;7810812;28;20581;-56
2022/01/20 03:30:06;;;;;;;2.88;1.50;;;20.80;65.90;;;;;;7810070;28;20210;-56
2022/01/20 03:33:52;;;;;;;4.00;1.63;;;20.80;65.80;;;;;;7810312;28;20592;-56
2022/01/20 03:37:37;;;;;;;4.75;1.50;;;20.80;65.80;;;;;;7809945;28;20699;-57
2022/01/20 03:41:23;;;;;;;3.58;1.40;;;20.70;65.80;;;;;;7810164;28;20190;-56
2022/01/20 03:45:09;;;;;;;5.80;1.70;;;20.70;66.00;;;;;;7809970;28;20190;-56
2022/01/20 03:49:03;;;;;;;4.72;1.40;;;20.70;66.10;;;;;;7809555;28;20285;-55
2022/01/20 03:52:48;;;;;;;4.57;1.42;;;20.70;67.00;;;;;;7809851;28;20598;-53
2022/01/20 03:56:34;;;;;;;6.18;1.40;;;20.70;66.20;;;;;;7809589;28;20174;-52
2022/01/20 04:00:19;;;;;;;4.57;1.27;;;20.70;66.20;;;;;;7809250;28;20195;-54
2022/01/20 04:04:05;;;;;;;7.00;1.35;;;20.70;66.20;;;;;;7809355;28;20189;-55
2022/01/20 04:07:50;;;;;;;5.75;1.50;;;20.70;66.10;;;;;;7808937;28;20206;-54
2022/01/20 04:11:36;;;;;;;4.07;1.52;;;20.70;66.30;;;;;;7809231;28;20179;-52
2022/01/20 04:15:26;;;;;;;5.63;1.42;;;20.70;66.20;;;;;;7809108;28;20204;-53
2022/01/20 04:19:11;;;;;;;4.32;1.10;;;20.60;66.10;;;;;;7808749;28;20199;-53
2022/01/20 04:22:57;;;;;;;4.85;1.63;;;20.60;66.20;;;;;;7808827;28;20177;-55
2022/01/20 04:26:44;;;;;;;4.90;1.40;;;20.60;66.30;;;;;;7808274;28;20237;-52
2022/01/20 04:30:30;;;;;;;3.28;1.30;;;20.60;66.80;;;;;;7808363;28;20305;-53
2022/01/20 04:34:16;;;;;;;6.88;1.27;;;20.70;66.50;;;;;;7808572;28;20186;-53
2022/01/20 04:38:02;;;;;;;5.50;1.30;;;20.70;66.50;;;;;;7808102;28;20202;-57
2022/01/20 04:41:49;;;;;;;7.65;1.67;;;20.70;66.40;;;;;;7808595;28;20186;-54
2022/01/20 04:45:42;;;;;;;3.95;1.40;;;20.60;66.30;;;;;;7808158;28;20202;-55
2022/01/20 04:57:05;;;;;;;5.05;1.60;;;20.70;66.30;;;;;;7807833;28;20225;-55
2022/01/20 04:57:37;;;;;;;1.92;0.90;;;20.70;66.40;;;;;;7807726;28;20198;-55
2022/01/20 05:01:22;;;;;;;4.20;1.45;;;20.70;66.40;;;;;;7807833;28;20232;-55
2022/01/20 05:05:09;;;;;;;4.13;1.30;;;20.60;66.40;;;;;;7807704;28;20179;-55
2022/01/20 05:08:54;;;;;;;3.30;1.33;;;20.70;66.50;;;;;;7807549;28;20774;-56
2022/01/20 05:13:03;;;;;;;2.53;0.95;;;20.70;66.50;;;;;;7807812;28;20676;-52
2022/01/20 05:16:45;;;;;;;4.53;1.00;;;20.70;66.50;;;;;;7807773;28;20178;-55
2022/01/20 05:20:31;;;;;;;2.58;0.98;;;20.70;66.40;;;;;;7807341;28;20191;-57
2022/01/20 05:24:16;;;;;;;3.28;1.30;;;20.70;66.50;;;;;;7807569;28;20220;-55
2022/01/20 05:28:02;;;;;;;3.67;1.13;;;20.70;66.50;;;;;;7807048;28;20280;-56
2022/01/20 05:31:49;;;;;;;3.75;0.93;;;20.70;66.60;;;;;;7814585;28;20174;-57
2022/01/20 05:35:34;;;;;;;4.20;1.00;;;20.70;66.60;;;;;;7837016;28;20678;-55
2022/01/20 05:39:20;;;;;;;9.10;1.23;;;20.70;66.20;;;;;;7832071;28;20210;-56
2022/01/20 05:43:14;;;;;;;10.52;1.38;;;20.70;66.20;;;;;;7843196;28;20655;-56
2022/01/20 05:47:05;;;;;;;12.98;1.63;;;20.70;65.70;;;;;;7842867;28;20892;-55
2022/01/20 05:50:51;;;;;;;16.70;1.80;;;20.70;66.70;;;;;;7843191;28;20209;-56
2022/01/20 05:54:36;;;;;;;19.25;1.88;;;20.70;67.00;;;;;;7841971;28;20216;-54
2022/01/20 05:58:22;;;;;;;19.15;2.65;;;20.70;67.00;;;;;;7842703;28;20221;-52
2022/01/20 06:02:24;;;;;;;38.72;2.13;;;20.70;67.10;;;;;;7842861;28;20189;-55
2022/01/20 06:06:12;;;;;;;36.20;2.97;;;20.70;67.20;;;;;;7842643;28;20186;-53
2022/01/20 06:09:57;;;;;;;30.95;2.42;;;20.70;67.40;;;;;;7842361;28;20213;-54
2022/01/20 06:13:43;;;;;;;24.88;2.70;;;20.70;67.70;;;;;;7842765;28;20253;-52
2022/01/20 06:17:30;;;;;;;57.88;4.18;;;20.80;67.50;;;;;;7841720;28;20216;-56
2022/01/20 06:21:15;;;;;;;92.97;5.57;;;20.70;66.90;;;;;;7842324;28;20526;-54
2022/01/20 06:25:02;;;;;;;54.97;5.40;;;20.70;67.40;;;;;;7840229;28;20189;-54
2022/01/20 06:28:47;;;;;;;37.92;3.55;;;20.70;67.40;;;;;;7841682;28;20220;-57
2022/01/20 06:32:34;;;;;;;37.70;3.17;;;20.70;67.40;;;;;;7829430;28;20656;-55
2022/01/20 06:36:19;;;;;;;35.40;3.70;;;20.70;67.50;;;;;;7810783;28;20703;-53
2022/01/20 06:40:06;;;;;;;37.45;3.45;;;20.70;67.40;;;;;;7810390;28;20627;-56
2022/01/20 06:43:51;;;;;;;31.02;3.13;;;20.70;67.70;;;;;;7810614;28;20526;-54
2022/01/20 06:47:37;;;;;;;23.92;3.05;;;20.70;67.30;;;;;;7810157;28;20202;-53
2022/01/20 06:51:22;;;;;;;31.08;2.63;;;20.70;67.20;;;;;;7810166;28;20182;-56
2022/01/20 06:55:11;;;;;;;29.55;2.83;;;20.70;67.30;;;;;;7810292;28;20175;-54
2022/01/20 06:58:57;;;;;;;21.17;2.90;;;20.70;67.20;;;;;;7810114;28;20292;-53
2022/01/20 07:02:43;;;;;;;20.05;2.42;;;20.70;67.20;;;;;;7824772;28;20186;-56
2022/01/20 07:06:29;;;;;;;28.38;2.72;;;20.70;67.50;;;;;;7840810;28;20186;-55
2022/01/20 07:10:19;;;;;;;29.95;2.47;;;20.70;67.50;;;;;;7840779;28;20248;-55
2022/01/20 07:14:06;;;;;;;27.10;2.70;;;20.70;67.40;;;;;;7841133;28;20543;-56
2022/01/20 07:17:51;;;;;;;22.85;2.78;;;20.70;67.50;;;;;;7824251;28;20206;-56
2022/01/20 07:21:37;;;;;;;32.55;2.47;;;20.70;67.60;;;;;;7837452;28;20273;-54
2022/01/20 07:25:22;;;;;;;34.10;2.67;;;20.70;67.70;;;;;;7840341;28;20189;-56
2022/01/20 07:29:08;;;;;;;14.63;3.20;;;20.70;67.70;;;;;;7840104;28;20245;-56
2022/01/20 07:32:53;;;;;;;21.95;2.40;;;20.70;67.50;;;;;;7824341;28;20333;-54
2022/01/20 07:36:39;;;;;;;32.22;3.17;;;20.70;67.30;;;;;;7809198;28;20240;-56
2022/01/20 07:40:24;;;;;;;24.52;2.33;;;20.70;67.10;;;;;;7808594;28;20699;-54
2022/01/20 07:44:10;;;;;;;24.60;3.20;;;20.60;66.50;;;;;;7806773;28;20237;-55
2022/01/20 07:47:55;;;;;;;21.58;2.22;;;20.70;66.80;;;;;;7808407;28;20848;-57
2022/01/20 07:51:41;;;;;;;17.75;3.13;;;20.60;66.80;;;;;;7808937;28;20178;-57
2022/01/20 07:55:27;;;;;;;23.83;3.03;;;20.60;67.00;;;;;;7808328;28;20178;-56
2022/01/20 07:59:12;;;;;;;14.82;1.80;;;20.60;66.90;;;;;;7808309;28;20269;-57
2022/01/20 08:02:58;;;;;;;12.23;2.53;;;20.60;66.80;;;;;;7825203;28;20190;-54
2022/01/20 08:06:43;;;;;;;15.80;1.98;;;20.60;67.10;;;;;;7839115;28;20182;-56
2022/01/20 08:10:30;;;;;;;13.40;1.98;;;20.60;67.10;;;;;;7838656;28;20262;-55
2022/01/20 08:14:15;;;;;;;23.42;1.80;;;20.60;67.10;;;;;;7839266;28;20170;-54
2022/01/20 08:18:01;;;;;;;15.88;1.83;;;20.60;66.80;;;;;;7820594;28;20209;-54
2022/01/20 08:21:46;;;;;;;11.65;1.45;;;20.60;66.90;;;;;;7807895;28;20649;-54
2022/01/20 08:25:34;;;;;;;16.63;1.73;;;20.60;66.80;;;;;;7807638;28;20832;-54
2022/01/20 08:29:20;;;;;;;9.88;1.75;;;20.60;66.90;;;;;;7807586;28;20260;-54
2022/01/20 08:33:05;;;;;;;11.75;1.75;;;20.60;66.80;;;;;;7818135;28;20189;-54
2022/01/20 08:36:54;;;;;;;11.25;1.48;;;20.60;66.50;;;;;;7824132;28;20186;-55
2022/01/20 08:40:40;;;;;;;11.50;1.58;;;20.60;66.40;;;;;;7838015;28;20785;-54
2022/01/20 08:44:26;;;;;;;9.80;1.52;;;20.60;66.20;;;;;;7838136;28;20287;-52
2022/01/20 08:48:13;;;;;;;8.75;1.38;;;20.60;66.10;;;;;;7817835;28;20225;-55
2022/01/20 08:52:00;;;;;;;7.80;1.40;;;20.70;66.00;;;;;;7806991;28;20671;-54
2022/01/20 08:55:46;;;;;;;28.77;2.08;;;20.70;66.10;;;;;;7806891;28;20257;-56
2022/01/20 08:59:32;;;;;;;21.52;2.05;;;20.80;66.10;;;;;;7806601;28;20198;-55
2022/01/20 09:03:17;;;;;;;22.95;1.80;;;20.80;66.30;;;;;;7807033;28;20285;-56
2022/01/20 09:07:03;;;;;;;17.35;1.77;;;20.90;67.00;;;;;;7807103;28;20205;-58
2022/01/20 09:10:54;;;;;;;15.93;2.08;;;20.90;67.60;;;;;;7806805;28;20210;-56
2022/01/20 09:18:49;;;;;;;20.65;2.72;;;21.10;68.80;;;;;;7831908;28;20209;-55
2022/01/20 09:22:34;;;;;;;27.55;2.42;;;21.20;69.00;;;;;;7837456;28;20208;-54
2022/01/20 09:26:20;;;;;;;16.25;2.22;;;21.20;68.90;;;;;;7837355;28;20192;-53
2022/01/20 09:30:06;;;;;;;17.77;1.73;;;21.20;69.00;;;;;;7836996;28;20226;-56
2022/01/20 09:33:54;;;;;;;17.23;2.70;;;21.30;69.00;;;;;;7811657;28;20197;-54
2022/01/20 09:37:40;;;;;;;19.63;3.20;;;21.30;68.90;;;;;;7805670;28;20198;-56
2022/01/20 09:41:26;;;;;;;17.65;2.42;;;21.30;70.00;;;;;;7806336;28;20171;-58
2022/01/20 09:45:13;;;;;;;6.15;1.73;;;21.30;69.10;;;;;;7803780;28;20194;-56
2022/01/20 09:48:58;;;;;;;19.45;2.00;;;21.40;69.20;;;;;;7832349;28;20225;-56
2022/01/20 09:52:44;;;;;;;12.95;2.25;;;21.40;69.20;;;;;;7837043;28;20173;-57
2022/01/20 09:56:30;;;;;;;8.10;1.60;;;21.40;70.10;;;;;;7836876;28;20214;-58
2022/01/20 10:00:17;;;;;;;19.02;2.05;;;21.40;70.70;;;;;;7836408;28;20202;-56
2022/01/20 10:04:03;;;;;;;10.55;2.28;;;21.40;71.20;;;;;;7809060;28;20300;-58
2022/01/20 10:07:48;;;;;;;11.52;1.80;;;21.20;61.90;;;;;;7803311;28;20207;-56
2022/01/20 10:11:34;;;;;;;5.05;1.85;;;21.00;63.60;;;;;;7805956;28;20572;-55
2022/01/20 10:15:19;;;;;;;16.80;1.98;;;21.00;67.50;;;;;;7805780;28;20182;-56
2022/01/20 10:19:06;;;;;;;9.68;2.13;;;21.10;69.10;;;;;;7833488;28;20210;-57
2022/01/20 10:22:56;;;;;;;30.50;2.33;;;21.20;68.30;;;;;;7836560;28;20189;-57
2022/01/20 10:26:42;;;;;;;11.88;1.83;;;21.30;70.00;;;;;;7839401;28;20174;-52
2022/01/20 10:30:29;;;;;;;12.45;1.90;;;21.30;70.40;;;;;;7841975;28;20213;-56
2022/01/20 10:34:28;;;;;;;9.90;2.13;;;21.40;70.80;;;;;;7812536;28;20197;-53
2022/01/20 10:38:16;;;;;;;8.32;1.85;;;21.50;71.00;;;;;;7810737;28;20206;-55
2022/01/20 10:42:14;;;;;;;9.63;1.88;;;21.50;71.00;;;;;;7811120;28;20175;-56
2022/01/20 10:46:11;;;;;;;10.65;2.38;;;21.50;71.10;;;;;;7814023;28;20736;-54
2022/01/20 10:50:13;;;;;;;11.95;2.05;;;21.60;70.70;;;;;;7841321;28;20205;-53
2022/01/20 10:53:58;;;;;;;10.90;2.17;;;21.60;70.70;;;;;;7841798;28;20181;-55
2022/01/20 10:57:43;;;;;;;8.88;2.20;;;21.70;70.60;;;;;;7841293;28;20229;-56
2022/01/20 11:01:29;;;;;;;9.30;1.88;;;21.70;70.50;;;;;;7834332;28;20187;-54
2022/01/20 11:05:16;;;;;;;10.18;2.05;;;21.70;70.50;;;;;;7810726;28;20175;-54
2022/01/20 11:09:04;;;;;;;22.48;2.67;;;21.70;70.00;;;;;;7810141;28;20245;-53
2022/01/20 11:12:50;;;;;;;12.98;2.65;;;21.60;68.70;;;;;;7810366;28;20175;-55
2022/01/20 11:16:39;;;;;;;10.18;1.90;;;21.60;69.50;;;;;;7818448;28;20220;-57
2022/01/20 11:20:30;;;;;;;12.15;1.77;;;21.60;69.80;;;;;;7840849;28;20347;-56
2022/01/20 11:24:24;;;;;;;7.93;1.60;;;21.60;69.40;;;;;;7840886;28;20188;-54
2022/01/20 11:28:21;;;;;;;9.02;1.58;;;21.60;69.10;;;;;;7840036;28;20248;-55
2022/01/20 11:32:22;;;;;;;10.45;1.55;;;21.60;69.20;;;;;;7827694;28;20592;-53
2022/01/20 11:36:24;;;;;;;10.73;1.90;;;21.50;68.10;;;;;;7808794;28;20182;-54
2022/01/20 11:40:21;;;;;;;13.77;2.20;;;21.50;68.90;;;;;;7808462;28;20708;-56
2022/01/20 11:44:09;;;;;;;9.18;2.08;;;21.50;69.00;;;;;;7809091;28;20190;-55
2022/01/20 11:47:55;;;;;;;7.10;1.58;;;21.50;67.20;;;;;;7828178;28;20205;-57
2022/01/20 11:51:59;;;;;;;4.43;1.60;;;21.40;68.40;;;;;;7840028;28;20249;-57
2022/01/20 11:55:53;;;;;;;10.75;2.08;;;21.50;68.30;;;;;;7839518;28;20181;-56
2022/01/20 11:59:51;;;;;;;11.90;2.22;;;21.30;62.80;;;;;;7839671;28;20204;-57
2022/01/20 12:03:50;;;;;;;11.18;1.90;;;21.10;64.00;;;;;;7814302;28;20276;-55
2022/01/20 12:07:35;;;;;;;18.75;1.95;;;21.10;66.20;;;;;;7807909;28;20582;-57
2022/01/20 12:11:22;;;;;;;21.50;2.17;;;21.20;67.10;;;;;;7806233;28;20174;-55
2022/01/20 12:15:12;;;;;;;14.95;2.00;;;21.30;67.60;;;;;;7808768;28;20648;-56
2022/01/20 12:18:59;;;;;;;10.45;1.90;;;21.50;67.80;;;;;;7836389;28;20610;-52
2022/01/20 12:22:46;;;;;;;12.80;2.38;;;21.70;67.90;;;;;;7839003;28;20182;-55
2022/01/20 12:26:36;;;;;;;7.00;2.00;;;21.90;68.00;;;;;;7838976;28;20647;-55
2022/01/20 12:30:24;;;;;;;6.15;1.40;;;22.10;68.00;;;;;;7838471;28;20213;-53
2022/01/20 12:34:13;;;;;;;10.15;2.25;;;22.20;67.90;;;;;;7808663;28;20668;-55
2022/01/20 12:37:58;;;;;;;5.40;1.60;;;22.30;67.80;;;;;;7807604;28;20202;-55
2022/01/20 12:41:53;;;;;;;8.95;1.88;;;22.40;67.80;;;;;;7806787;28;20175;-52
2022/01/20 12:45:57;;;;;;;7.38;1.45;;;22.50;67.80;;;;;;7809415;28;20263;-56
2022/01/20 12:49:43;;;;;;;7.25;1.67;;;22.60;67.70;;;;;;7838141;28;20226;-55
2022/01/20 12:53:40;;;;;;;4.55;1.50;;;22.60;67.70;;;;;;7838736;28;20174;-54
2022/01/20 12:57:26;;;;;;;12.32;1.92;;;22.60;67.80;;;;;;7837624;28;20217;-56
2022/01/20 13:01:11;;;;;;;6.88;1.63;;;22.70;67.90;;;;;;7831509;28;20185;-55
2022/01/20 13:05:00;;;;;;;13.35;1.50;;;22.60;67.90;;;;;;7806911;28;20174;-55
2022/01/20 13:09:06;;;;;;;10.45;1.70;;;22.70;67.90;;;;;;7806341;28;20241;-55
2022/01/20 13:12:52;;;;;;;8.25;1.90;;;22.60;68.10;;;;;;7832232;28;20638;-56
2022/01/20 13:16:50;;;;;;;9.70;1.60;;;22.60;68.10;;;;;;7827610;28;20232;-55
2022/01/20 13:20:41;;;;;;;5.93;1.65;;;22.60;68.30;;;;;;7806420;28;20202;-56
2022/01/20 13:24:31;;;;;;;5.28;1.58;;;22.60;68.40;;;;;;7806521;28;20179;-55
2022/01/20 13:28:17;;;;;;;4.03;1.75;;;22.50;68.40;;;;;;7806036;28;20665;-53
2022/01/20 13:32:03;;;;;;;4.70;1.35;;;22.50;68.50;;;;;;7806386;28;20190;-52
2022/01/20 13:35:56;;;;;;;7.55;1.70;;;22.50;68.70;;;;;;7806056;28;20228;-56
2022/01/20 13:39:45;;;;;;;8.20;1.63;;;22.40;68.80;;;;;;7805875;28;20202;-57
2022/01/20 13:48:02;;;;;;;9.07;1.55;;;22.30;68.50;;;;;;7823687;28;20210;-57
2022/01/20 13:52:09;;;;;;;6.60;1.83;;;22.30;68.70;;;;;;7837308;28;20580;-57
2022/01/20 13:55:58;;;;;;;8.52;1.70;;;22.40;68.60;;;;;;7837003;28;20655;-57
2022/01/20 13:59:55;;;;;;;22.63;2.35;;;22.40;68.60;;;;;;7836616;28;20244;-57
2022/01/20 14:03:41;;;;;;;20.45;2.38;;;22.40;68.90;;;;;;7815867;28;20221;-57
2022/01/20 14:07:27;;;;;;;16.55;1.80;;;22.60;69.90;;;;;;7811935;28;20194;-56
2022/01/20 14:11:12;;;;;;;12.95;2.10;;;22.70;70.20;;;;;;7809321;28;20217;-56
2022/01/20 14:14:58;;;;;;;7.78;1.50;;;22.90;70.50;;;;;;7811893;28;20534;-57
2022/01/20 14:18:46;;;;;;;9.68;1.77;;;23.10;70.10;;;;;;7839458;28;20218;-55
2022/01/20 14:22:31;;;;;;;12.85;2.35;;;23.30;69.90;;;;;;7843010;28;20186;-55
2022/01/20 14:26:27;;;;;;;11.02;2.00;;;23.50;70.20;;;;;;7842304;28;20196;-55
2022/01/20 14:30:13;;;;;;;11.48;1.85;;;23.70;70.10;;;;;;7841842;28;20576;-55
2022/01/20 14:33:59;;;;;;;23.88;2.03;;;23.90;70.10;;;;;;7811801;28;20187;-53
2022/01/20 14:37:44;;;;;;;9.10;1.55;;;24.00;69.90;;;;;;7810680;28;20325;-53
2022/01/20 14:41:30;;;;;;;14.02;2.00;;;24.10;69.60;;;;;;7811210;28;20185;-52
2022/01/20 14:45:21;;;;;;;10.07;1.70;;;24.20;69.10;;;;;;7810660;28;20265;-54
2022/01/20 14:49:06;;;;;;;6.38;1.65;;;24.20;68.80;;;;;;7810393;28;20209;-55
2022/01/20 14:52:52;;;;;;;11.77;1.88;;;24.20;68.70;;;;;;7838403;28;20193;-51
2022/01/20 14:56:37;;;;;;;18.23;1.75;;;24.20;68.00;;;;;;7840778;28;20166;-54
2022/01/20 15:00:23;;;;;;;10.73;2.13;;;24.20;67.80;;;;;;7840937;28;20193;-57
2022/01/20 15:04:09;;;;;;;8.57;2.45;;;24.20;63.50;;;;;;7841415;28;20232;-53
2022/01/20 15:07:54;;;;;;;6.75;2.15;;;23.60;56.60;;;;;;7840697;28;20277;-55
2022/01/20 15:11:40;;;;;;;14.65;2.40;;;23.20;60.80;;;;;;7840897;28;20185;-52
2022/01/20 15:15:26;;;;;;;13.63;2.28;;;23.20;63.00;;;;;;7839207;28;20202;-51
2022/01/20 15:19:13;;;;;;;22.30;2.80;;;23.30;63.50;;;;;;7837694;28;20209;-55
2022/01/20 15:23:00;;;;;;;13.50;2.00;;;23.40;63.50;;;;;;7841584;28;20655;-54
2022/01/20 15:26:45;;;;;;;13.98;2.03;;;23.40;63.00;;;;;;7841492;28;20211;-51
2022/01/20 15:30:31;;;;;;;10.32;1.88;;;23.50;62.30;;;;;;7841105;28;20209;-55
2022/01/20 15:34:16;;;;;;;17.52;1.73;;;23.60;64.10;;;;;;7841367;28;20177;-52
2022/01/20 15:38:03;;;;;;;10.48;1.77;;;23.60;64.20;;;;;;7841181;28;20263;-54
2022/01/20 15:41:49;;;;;;;13.15;2.13;;;23.70;64.10;;;;;;7841244;28;20200;-52
2022/01/20 15:45:35;;;;;;;9.70;1.65;;;23.90;64.10;;;;;;7841004;28;20200;-54
2022/01/20 15:49:20;;;;;;;17.35;2.13;;;24.10;64.10;;;;;;7840592;28;20217;-54
2022/01/20 15:53:06;;;;;;;11.43;1.75;;;24.20;64.80;;;;;;7840804;28;20659;-53
2022/01/20 15:56:52;;;;;;;8.90;1.85;;;24.30;63.80;;;;;;7840930;28;20178;-56
2022/01/20 16:00:38;;;;;;;7.03;1.70;;;24.40;63.60;;;;;;7840453;28;20198;-52
2022/01/20 16:04:23;;;;;;;9.52;3.13;;;24.50;63.50;;;;;;7840817;28;20262;-54
2022/01/20 16:08:09;;;;;;;6.50;1.50;;;24.50;63.40;;;;;;7840262;28;20251;-54
2022/01/20 16:11:54;;;;;;;6.45;1.90;;;24.60;63.30;;;;;;7840834;28;20181;-54
2022/01/20 16:15:40;;;;;;;4.80;1.77;;;24.60;63.30;;;;;;7840621;28;20275;-56
2022/01/20 16:19:26;;;;;;;8.45;1.90;;;24.60;63.20;;;;;;7839846;28;20733;-55
2022/01/20 16:23:11;;;;;;;5.65;1.55;;;24.60;63.10;;;;;;7839329;28;20519;-55
2022/01/20 16:26:57;;;;;;;4.90;1.73;;;24.60;62.60;;;;;;7840077;28;20213;-56
2022/01/20 16:30:42;;;;;;;5.82;1.88;;;24.70;62.20;;;;;;7839677;28;20216;-51
2022/01/20 16:34:28;;;;;;;6.40;2.25;;;24.70;62.20;;;;;;7839759;28;20636;-52
2022/01/20 16:38:13;;;;;;;3.90;2.05;;;24.60;61.60;;;;;;7839172;28;20209;-54
2022/01/20 16:41:59;;;;;;;9.07;1.95;;;24.60;60.80;;;;;;7839383;28;20209;-51
2022/01/20 16:45:44;;;;;;;5.03;1.73;;;24.60;60.50;;;;;;7839174;28;20197;-52
2022/01/20 16:49:33;;;;;;;5.05;1.77;;;24.60;60.20;;;;;;7838770;28;20676;-53
2022/01/20 16:53:20;;;;;;;4.38;2.13;;;24.60;60.00;;;;;;7839096;28;20253;-53
2022/01/20 16:57:05;;;;;;;4.53;1.88;;;24.50;60.50;;;;;;7839002;28;20181;-51
2022/01/20 17:00:51;;;;;;;5.55;2.20;;;24.50;58.90;;;;;;7838623;28;20184;-54
2022/01/20 17:04:36;;;;;;;6.35;2.42;;;24.50;59.00;;;;;;7838911;28;20189;-51
2022/01/20 17:08:22;;;;;;;6.65;2.20;;;24.50;58.30;;;;;;7838234;28;20214;-54
2022/01/20 17:12:08;;;;;;;5.05;2.08;;;24.50;57.70;;;;;;7838755;28;20531;-54
2022/01/20 17:15:54;;;;;;;4.97;2.30;;;24.40;57.60;;;;;;7838554;28;20861;-54
2022/01/20 17:19:39;;;;;;;4.63;2.20;;;24.40;57.30;;;;;;7838095;28;20601;-54
2022/01/20 17:23:28;;;;;;;6.57;2.05;;;24.30;57.30;;;;;;7838345;28;20601;-52
2022/01/20 17:27:13;;;;;;;4.57;2.10;;;24.30;57.30;;;;;;7838423;28;20193;-53
2022/01/20 17:30:59;;;;;;;4.20;1.75;;;24.20;57.30;;;;;;7838205;28;20252;-52
2022/01/20 17:34:44;;;;;;;3.08;1.50;;;24.20;57.10;;;;;;7838233;28;20178;-56
2022/01/20 17:38:30;;;;;;;6.32;2.10;;;24.20;57.10;;;;;;7838201;28;20692;-51
2022/01/20 17:42:15;;;;;;;4.63;1.83;;;24.10;57.20;;;;;;7838149;28;20184;-55
2022/01/20 17:46:01;;;;;;;4.38;1.70;;;24.10;57.30;;;;;;7838071;28;20324;-55
2022/01/20 17:49:46;;;;;;;10.10;2.42;;;24.00;57.10;;;;;;7837607;28;20697;-53
2022/01/20 17:53:32;;;;;;;7.47;2.20;;;24.00;58.10;;;;;;7837972;28;20174;-55
2022/01/20 17:57:17;;;;;;;16.77;2.90;;;24.00;58.00;;;;;;7838015;28;20285;-56
2022/01/20 18:01:03;;;;;;;9.35;2.47;;;23.90;57.50;;;;;;7837727;28;20178;-53
2022/01/20 18:04:48;;;;;;;9.60;2.50;;;23.90;57.50;;;;;;7837708;28;20182;-55
2022/01/20 18:08:34;;;;;;;8.73;3.28;;;23.80;57.30;;;;;;7837353;28;20695;-55
2022/01/20 18:12:19;;;;;;;12.65;3.70;;;23.80;57.20;;;;;;7837661;28;20209;-52
2022/01/20 18:16:05;;;;;;;11.57;2.90;;;23.70;57.10;;;;;;7837575;28;20253;-55
2022/01/20 18:19:50;;;;;;;12.23;3.70;;;23.70;57.20;;;;;;7837102;28;20221;-56
2022/01/20 18:23:36;;;;;;;18.10;3.75;;;23.70;57.20;;;;;;7837414;28;20644;-55
2022/01/20 18:27:22;;;;;;;24.30;6.32;;;23.70;57.40;;;;;;7821898;28;20210;-53
2022/01/20 18:31:08;;;;;;;31.17;16.20;;;23.60;54.80;;;;;;7832949;28;20208;-53
2022/01/20 18:34:54;;;;;;;35.67;17.63;;;23.30;55.00;;;;;;7837132;28;20174;-51
2022/01/20 18:38:41;;;;;;;31.98;18.55;;;23.20;55.90;;;;;;7836887;28;20198;-53
2022/01/20 18:42:26;;;;;;;37.22;15.15;;;23.20;56.50;;;;;;7837295;28;20182;-55
2022/01/20 18:46:12;;;;;;;159.82;14.30;;;23.20;56.60;;;;;;7814527;28;20288;-51
2022/01/20 18:49:57;;;;;;;124.18;13.20;;;23.20;55.00;;;;;;7811610;28;20293;-51
2022/01/20 18:53:43;;;;;;;76.40;10.68;;;23.10;55.50;;;;;;7811802;28;20171;-54
2022/01/20 18:57:28;;;;;;;66.72;12.55;;;23.10;56.70;;;;;;7811231;28;20199;-54
2022/01/20 19:01:14;;;;;;;65.38;16.38;;;23.10;56.80;;;;;;7811612;28;20270;-51
2022/01/20 19:04:59;;;;;;;66.07;24.40;;;23.20;56.70;;;;;;7834073;28;20280;-51
2022/01/20 19:08:45;;;;;;;65.20;20.65;;;23.20;57.30;;;;;;7841047;28;20241;-53
2022/01/20 19:12:32;;;;;;;63.80;18.70;;;23.20;57.10;;;;;;7840696;28;20197;-53
2022/01/20 19:16:22;;;;;;;55.40;15.65;;;23.20;57.20;;;;;;7841164;28;20170;-54
2022/01/20 19:20:10;;;;;;;43.00;12.60;;;23.20;57.10;;;;;;7840808;28;20683;-51
2022/01/20 19:23:55;;;;;;;37.35;12.38;;;23.30;57.10;;;;;;7835585;28;20277;-53
2022/01/20 19:27:41;;;;;;;25.33;7.82;;;23.40;57.40;;;;;;7812983;28;20198;-50
2022/01/20 19:31:26;;;;;;;26.70;8.15;;;23.50;58.20;;;;;;7810139;28;20259;-52
2022/01/20 19:35:13;;;;;;;31.92;8.18;;;23.70;58.90;;;;;;7810868;28;20198;-50
2022/01/20 19:39:00;;;;;;;38.88;5.70;;;23.90;59.90;;;;;;7810125;28;20202;-51
2022/01/20 19:42:47;;;;;;;26.42;6.70;;;24.00;61.90;;;;;;7808993;28;20640;-52
2022/01/20 19:46:33;;;;;;;31.00;6.30;;;24.10;61.30;;;;;;7809225;28;20186;-53
2022/01/20 19:50:22;;;;;;;25.92;5.50;;;24.20;62.10;;;;;;7833585;28;20214;-50
2022/01/20 19:54:07;;;;;;;20.45;4.47;;;24.20;62.80;;;;;;7831497;28;20174;-51
2022/01/20 19:57:55;;;;;;;23.08;4.28;;;24.20;63.00;;;;;;7807344;28;20198;-52
2022/01/20 20:01:41;;;;;;;27.05;4.10;;;24.30;63.80;;;;;;7809021;28;20276;-53
2022/01/20 20:05:27;;;;;;;17.77;3.92;;;24.30;63.30;;;;;;7809255;28;20174;-50
2022/01/20 20:09:13;;;;;;;17.50;3.97;;;24.30;63.40;;;;;;7809003;28;20206;-52
2022/01/20 20:12:58;;;;;;;15.85;3.72;;;24.30;63.20;;;;;;7809342;28;20175;-53
2022/01/20 20:16:44;;;;;;;15.38;3.50;;;24.30;63.20;;;;;;7809137;28;20182;-50
2022/01/20 20:20:30;;;;;;;18.38;4.18;;;24.30;63.20;;;;;;7808800;28;20233;-52